createdAt,value
2019-06-27T00:01:02.691Z,24.39
2019-06-27T00:03:30.301Z,24.35
2019-06-27T00:05:58.111Z,24.33
2019-06-27T00:08:25.673Z,23.31
2019-06-27T00:10:53.303Z,24.14
2019-06-27T00:13:20.493Z,24.07
2019-06-27T00:15:47.259Z,24.00
2019-06-27T00:18:14.002Z,23.94
2019-06-27T00:20:41.966Z,23.88
2019-06-27T00:23:09.602Z,23.82
2019-06-27T00:25:37.206Z,23.72
2019-06-27T00:28:04.816Z,23.67
2019-06-27T00:30:32.382Z,23.52
2019-06-27T00:33:00.132Z,23.46
2019-06-27T00:35:28.255Z,23.40
2019-06-27T00:37:55.834Z,23.33
2019-06-27T00:40:23.309Z,23.21
2019-06-27T00:42:51.094Z,23.08
2019-06-27T00:45:18.609Z,23.00
2019-06-27T00:47:45.933Z,22.96
2019-06-27T00:50:13.223Z,22.91
2019-06-27T00:52:40.647Z,22.90
2019-06-27T00:55:08.384Z,21.12
2019-06-27T00:57:35.358Z,22.80
2019-06-27T01:00:03.256Z,22.71
2019-06-27T01:02:30.343Z,22.64
2019-06-27T01:04:56.946Z,22.57
2019-06-27T01:07:24.354Z,22.48
2019-06-27T01:09:52.709Z,21.13
2019-06-27T01:12:20.529Z,22.38
2019-06-27T01:14:48.167Z,22.35
2019-06-27T01:17:15.895Z,22.35
2019-06-27T01:19:43.572Z,22.32
2019-06-27T01:22:10.526Z,22.22
2019-06-27T01:24:38.268Z,22.15
2019-06-27T01:27:06.252Z,22.10
2019-06-27T01:29:33.146Z,22.05
2019-06-27T01:32:01.096Z,22.02
2019-06-27T01:34:29.020Z,21.99
2019-06-27T01:36:55.771Z,21.98
2019-06-27T01:39:23.674Z,21.94
2019-06-27T01:41:51.581Z,21.84
2019-06-27T01:44:38.391Z,21.75
2019-06-27T01:47:07.008Z,21.67
2019-06-27T01:49:34.804Z,21.64
2019-06-27T01:52:02.371Z,21.61
2019-06-27T01:54:29.953Z,21.54
2019-06-27T01:56:57.665Z,21.46
2019-06-27T01:59:25.384Z,21.37
2019-06-27T02:01:53.069Z,21.29
2019-06-27T02:04:20.444Z,21.21
2019-06-27T02:06:47.632Z,21.14
2019-06-27T02:09:15.432Z,21.04
2019-06-27T02:11:43.374Z,20.98
2019-06-27T02:14:11.581Z,20.90
2019-06-27T02:16:38.957Z,20.82
2019-06-27T02:19:06.484Z,20.80
2019-06-27T02:21:34.507Z,20.77
2019-06-27T02:24:02.057Z,20.71
2019-06-27T02:26:29.886Z,20.64
2019-06-27T02:28:56.922Z,20.63
2019-06-27T02:31:24.555Z,20.55
2019-06-27T02:33:52.236Z,20.49
2019-06-27T02:36:20.241Z,19.10
2019-06-27T02:38:48.177Z,20.43
2019-06-27T02:41:15.861Z,20.40
2019-06-27T02:43:44.048Z,20.37
2019-06-27T02:46:11.813Z,20.25
2019-06-27T02:48:39.465Z,20.15
2019-06-27T02:51:07.440Z,20.09
2019-06-27T02:53:34.993Z,20.06
2019-06-27T02:56:01.998Z,20.08
2019-06-27T02:58:32.342Z,20.08
2019-06-27T03:00:59.757Z,20.09
2019-06-27T03:03:27.493Z,20.01
2019-06-27T03:05:54.823Z,19.95
2019-06-27T03:08:21.743Z,19.96
2019-06-27T03:10:49.528Z,19.98
2019-06-27T03:13:17.176Z,19.91
2019-06-27T03:15:45.024Z,19.79
2019-06-27T03:18:12.692Z,19.68
2019-06-27T03:20:40.316Z,19.60
2019-06-27T03:23:07.914Z,19.57
2019-06-27T03:25:35.946Z,19.48
2019-06-27T03:28:03.388Z,19.45
2019-06-27T03:30:30.817Z,19.38
2019-06-27T03:32:58.602Z,19.35
2019-06-27T03:35:25.985Z,19.29
2019-06-27T03:37:54.240Z,19.23
2019-06-27T03:40:22.209Z,19.18
2019-06-27T03:42:49.848Z,19.12
2019-06-27T03:45:17.784Z,19.05
2019-06-27T03:47:45.674Z,18.99
2019-06-27T03:50:13.244Z,17.61
2019-06-27T03:52:40.887Z,18.93
2019-06-27T03:55:08.782Z,18.94
2019-06-27T03:57:36.169Z,18.95
2019-06-27T04:00:04.050Z,18.95
2019-06-27T04:02:32.252Z,18.97
2019-06-27T04:04:59.077Z,18.95
2019-06-27T04:07:26.219Z,18.93
2019-06-27T04:09:53.878Z,18.90
2019-06-27T04:12:21.898Z,18.86
2019-06-27T04:14:49.663Z,18.88
2019-06-27T04:17:17.435Z,18.87
2019-06-27T04:19:45.090Z,18.85
2019-06-27T04:22:17.140Z,18.77
2019-06-27T04:24:41.946Z,18.72
2019-06-27T04:27:09.805Z,18.72
2019-06-27T04:29:36.632Z,18.73
2019-06-27T04:32:03.756Z,18.72
2019-06-27T04:34:30.930Z,18.73
2019-06-27T04:36:58.605Z,18.69
2019-06-27T04:39:26.439Z,18.67
2019-06-27T04:41:53.521Z,18.64
2019-06-27T04:44:20.665Z,18.29
2019-06-27T04:46:48.737Z,18.56
2019-06-27T04:49:15.750Z,18.54
2019-06-27T04:51:42.800Z,18.54
2019-06-27T04:54:09.898Z,18.51
2019-06-27T04:56:37.039Z,18.50
2019-06-27T04:59:04.139Z,18.45
2019-06-27T05:01:30.760Z,18.42
2019-06-27T05:03:57.812Z,18.37
2019-06-27T05:06:24.550Z,18.37
2019-06-27T05:08:51.960Z,18.38
2019-06-27T05:11:18.816Z,18.43
2019-06-27T05:13:46.736Z,18.44
2019-06-27T05:16:13.525Z,18.45
2019-06-27T05:18:41.070Z,18.45
2019-06-27T05:21:07.805Z,18.43
2019-06-27T05:23:35.719Z,18.44
2019-06-27T05:26:02.762Z,18.44
2019-06-27T05:28:29.533Z,18.45
2019-06-27T05:30:57.257Z,18.46
2019-06-27T05:33:24.576Z,16.83
2019-06-27T05:35:51.946Z,18.50
2019-06-27T05:38:18.549Z,18.52
2019-06-27T05:40:46.143Z,18.56
2019-06-27T05:43:13.678Z,18.59
2019-06-27T05:45:40.399Z,18.55
2019-06-27T05:48:07.429Z,18.55
2019-06-27T05:50:35.300Z,18.61
2019-06-27T05:53:02.068Z,18.66
2019-06-27T05:55:29.154Z,18.74
2019-06-27T05:57:56.065Z,18.93
2019-06-27T06:00:28.822Z,19.02
2019-06-27T06:02:51.976Z,19.09
2019-06-27T06:05:18.907Z,19.09
2019-06-27T06:07:45.751Z,19.08
2019-06-27T06:10:13.138Z,19.08
2019-06-27T06:12:40.182Z,19.11
2019-06-27T06:15:07.887Z,19.13
2019-06-27T06:17:35.257Z,19.15
2019-06-27T06:20:07.487Z,19.20
2019-06-27T06:22:34.346Z,19.24
2019-06-27T06:25:02.155Z,19.26
2019-06-27T06:27:29.479Z,19.28
2019-06-27T06:29:56.650Z,19.28
2019-06-27T06:32:24.270Z,19.28
2019-06-27T06:34:51.786Z,19.28
2019-06-27T06:37:18.942Z,19.30
2019-06-27T06:39:46.183Z,19.28
2019-06-27T06:42:13.793Z,19.27
2019-06-27T06:44:42.015Z,19.32
2019-06-27T06:47:08.641Z,19.41
2019-06-27T06:49:35.796Z,19.47
2019-06-27T06:52:02.903Z,19.56
2019-06-27T06:54:30.660Z,19.68
2019-06-27T06:56:58.218Z,19.79
2019-06-27T06:59:25.741Z,19.92
2019-06-27T07:01:53.527Z,19.97
2019-06-27T07:04:21.263Z,20.01
2019-06-27T07:06:48.057Z,20.00
2019-06-27T07:09:16.039Z,19.97
2019-06-27T07:11:43.634Z,20.03
2019-06-27T07:14:11.306Z,20.16
2019-06-27T07:16:38.898Z,20.37
2019-06-27T07:19:06.111Z,20.61
2019-06-27T07:21:33.651Z,20.89
2019-06-27T07:24:01.771Z,21.31
2019-06-27T07:26:29.622Z,21.74
2019-06-27T07:28:57.588Z,22.27
2019-06-27T07:31:25.282Z,22.60
2019-06-27T07:33:52.849Z,22.82
2019-06-27T07:36:20.699Z,22.93
2019-06-27T07:38:48.447Z,22.91
2019-06-27T07:41:15.211Z,23.10
2019-06-27T07:43:42.665Z,23.52
2019-06-27T07:46:24.132Z,23.82
2019-06-27T07:48:39.450Z,23.97
2019-06-27T07:51:06.701Z,24.04
2019-06-27T07:53:34.391Z,23.00
2019-06-27T07:56:02.086Z,24.41
2019-06-27T07:58:29.750Z,24.50
2019-06-27T08:00:57.500Z,24.38
2019-06-27T08:03:24.758Z,24.50
2019-06-27T08:05:52.083Z,24.61
2019-06-27T08:08:19.482Z,24.66
2019-06-27T08:10:46.786Z,24.82
2019-06-27T08:13:14.807Z,25.08
2019-06-27T08:15:41.969Z,25.35
2019-06-27T08:18:09.719Z,25.57
2019-06-27T08:20:36.556Z,25.81
2019-06-27T08:23:04.315Z,26.01
2019-06-27T08:25:31.283Z,26.02
2019-06-27T08:27:58.157Z,26.11
2019-06-27T08:30:26.008Z,26.20
2019-06-27T08:32:53.275Z,26.55
2019-06-27T08:35:21.073Z,26.95
2019-06-27T08:37:48.576Z,27.07
2019-06-27T08:40:16.413Z,26.98
2019-06-27T08:42:44.087Z,26.91
2019-06-27T08:45:13.837Z,26.95
2019-06-27T08:47:41.084Z,27.20
2019-06-27T08:50:08.466Z,27.51
2019-06-27T08:52:36.096Z,27.56
2019-06-27T08:55:07.321Z,27.34
2019-06-27T08:57:34.609Z,27.24
2019-06-27T09:00:03.121Z,27.40
2019-06-27T09:02:30.337Z,27.64
2019-06-27T09:04:57.754Z,27.94
2019-06-27T09:07:25.725Z,27.93
2019-06-27T09:09:53.172Z,28.17
2019-06-27T09:12:20.007Z,28.50
2019-06-27T09:14:47.681Z,28.75
2019-06-27T09:17:14.847Z,28.91
2019-06-27T09:19:42.398Z,29.00
2019-06-27T09:22:09.754Z,29.05
2019-06-27T09:24:36.888Z,29.21
2019-06-27T09:27:04.472Z,29.42
2019-06-27T09:29:32.543Z,29.84
2019-06-27T09:31:59.946Z,30.21
2019-06-27T09:34:27.940Z,30.28
2019-06-27T09:36:55.732Z,29.77
2019-06-27T09:39:26.887Z,29.74
2019-06-27T09:41:53.393Z,29.89
2019-06-27T09:44:20.289Z,30.41
2019-06-27T09:46:47.843Z,30.98
2019-06-27T09:49:15.873Z,31.34
2019-06-27T09:51:43.412Z,30.92
2019-06-27T09:54:10.273Z,30.74
2019-06-27T09:56:37.221Z,30.62
2019-06-27T09:59:04.130Z,30.41
2019-06-27T10:01:30.749Z,30.21
2019-06-27T10:03:57.568Z,30.45
2019-06-27T10:06:26.308Z,30.54
2019-06-27T10:08:54.142Z,30.73
2019-06-27T10:11:22.174Z,30.94
2019-06-27T10:13:50.011Z,30.87
2019-06-27T10:16:17.146Z,30.96
2019-06-27T10:18:44.042Z,31.01
2019-06-27T10:21:11.530Z,31.21
2019-06-27T10:23:39.366Z,31.18
2019-06-27T10:26:07.330Z,30.91
2019-06-27T10:28:34.166Z,30.94
2019-06-27T10:31:01.595Z,31.14
2019-06-27T10:33:29.550Z,31.07
2019-06-27T10:35:56.334Z,30.33
2019-06-27T10:38:23.055Z,31.60
2019-06-27T10:40:50.505Z,31.84
2019-06-27T10:43:17.798Z,31.95
2019-06-27T10:45:44.641Z,31.71
2019-06-27T10:48:11.486Z,31.59
2019-06-27T10:50:39.638Z,31.74
2019-06-27T10:53:06.498Z,32.00
2019-06-27T10:55:34.538Z,31.98
2019-06-27T10:58:01.395Z,31.62
2019-06-27T11:00:28.225Z,31.45
2019-06-27T11:02:55.392Z,31.19
2019-06-27T11:05:22.243Z,31.23
2019-06-27T11:07:49.241Z,31.34
2019-06-27T11:10:16.447Z,31.36
2019-06-27T11:12:45.085Z,31.04
2019-06-27T11:15:12.807Z,30.83
2019-06-27T11:17:39.930Z,30.45
2019-06-27T11:20:06.980Z,30.53
2019-06-27T11:22:33.894Z,30.75
2019-06-27T11:25:02.133Z,31.37
2019-06-27T11:27:30.005Z,31.65
2019-06-27T11:29:57.871Z,31.71
2019-06-27T11:32:24.612Z,31.44
2019-06-27T11:34:52.445Z,31.23
2019-06-27T11:37:19.697Z,31.07
2019-06-27T11:39:47.190Z,31.01
2019-06-27T11:42:14.360Z,31.37
2019-06-27T11:44:41.180Z,31.59
2019-06-27T11:47:08.008Z,31.47
2019-06-27T11:49:34.941Z,31.35
2019-06-27T11:52:02.418Z,31.53
2019-06-27T11:54:30.056Z,31.77
2019-06-27T11:56:56.814Z,32.18
2019-06-27T11:59:23.956Z,32.30
2019-06-27T12:01:51.642Z,32.23
2019-06-27T12:04:18.807Z,31.97
2019-06-27T12:06:48.717Z,31.77
2019-06-27T12:09:15.439Z,31.70
2019-06-27T12:11:42.382Z,31.70
2019-06-27T12:14:09.296Z,31.90
2019-06-27T12:16:36.019Z,32.11
2019-06-27T12:19:03.687Z,32.22
2019-06-27T12:21:30.691Z,32.52
2019-06-27T12:23:58.947Z,32.67
2019-06-27T12:26:25.909Z,32.47
2019-06-27T12:28:52.669Z,32.21
2019-06-27T12:31:21.217Z,31.92
2019-06-27T12:34:05.240Z,31.69
2019-06-27T12:36:18.102Z,31.77
2019-06-27T12:38:44.995Z,31.82
2019-06-27T12:41:11.860Z,31.69
2019-06-27T12:43:38.903Z,31.68
2019-06-27T12:46:05.745Z,31.81
2019-06-27T12:48:32.560Z,31.69
2019-06-27T12:50:59.583Z,31.61
2019-06-27T12:53:26.439Z,31.83
2019-06-27T12:55:53.360Z,32.19
2019-06-27T12:58:20.121Z,32.11
2019-06-27T13:00:47.711Z,31.86
2019-06-27T13:03:14.567Z,31.73
2019-06-27T13:05:41.308Z,31.50
2019-06-27T13:08:08.450Z,31.49
2019-06-27T13:10:35.859Z,31.52
2019-06-27T13:13:04.356Z,31.84
2019-06-27T13:15:31.591Z,32.27
2019-06-27T13:17:58.366Z,32.41
2019-06-27T13:20:25.450Z,32.65
2019-06-27T13:22:53.626Z,32.70
2019-06-27T13:25:20.389Z,33.04
2019-06-27T13:27:47.683Z,32.77
2019-06-27T13:30:14.762Z,32.25
2019-06-27T13:32:41.695Z,31.58
2019-06-27T13:35:08.853Z,31.10
2019-06-27T13:37:35.677Z,31.08
2019-06-27T13:40:04.896Z,31.45
2019-06-27T13:42:32.763Z,31.71
2019-06-27T13:44:59.515Z,31.51
2019-06-27T13:47:26.754Z,31.57
2019-06-27T13:49:53.607Z,31.58
2019-06-27T13:52:20.371Z,31.61
2019-06-27T13:54:47.478Z,31.43
2019-06-27T13:57:14.936Z,31.31
2019-06-27T13:59:42.538Z,31.50
2019-06-27T14:02:09.807Z,31.46
2019-06-27T14:04:37.176Z,31.83
2019-06-27T14:07:04.180Z,31.98
2019-06-27T14:09:31.235Z,31.56
2019-06-27T14:11:58.105Z,31.46
2019-06-27T14:14:25.690Z,31.13
2019-06-27T14:16:52.555Z,31.16
2019-06-27T14:19:19.589Z,31.48
2019-06-27T14:21:47.503Z,31.65
2019-06-27T14:24:17.537Z,31.67
2019-06-27T14:26:43.652Z,31.47
2019-06-27T14:29:10.597Z,31.43
2019-06-27T14:31:38.036Z,31.55
2019-06-27T14:34:05.812Z,31.69
2019-06-27T14:36:32.673Z,31.58
2019-06-27T14:38:59.530Z,31.31
2019-06-27T14:41:26.165Z,31.12
2019-06-27T14:43:53.504Z,31.15
2019-06-27T14:46:20.428Z,31.19
2019-06-27T14:48:47.159Z,31.02
2019-06-27T14:51:14.643Z,30.93
2019-06-27T14:53:41.811Z,31.13
2019-06-27T14:56:08.709Z,31.20
2019-06-27T14:58:35.896Z,31.15
2019-06-27T15:01:07.019Z,31.13
2019-06-27T15:03:32.911Z,30.97
2019-06-27T15:06:00.464Z,30.78
2019-06-27T15:08:27.824Z,30.47
2019-06-27T15:10:54.731Z,30.30
2019-06-27T15:13:21.743Z,30.14
2019-06-27T15:15:48.804Z,30.13
2019-06-27T15:18:16.856Z,30.33
2019-06-27T15:20:44.071Z,30.44
2019-06-27T15:23:10.903Z,30.45
2019-06-27T15:25:37.754Z,30.46
2019-06-27T15:28:05.844Z,30.44
2019-06-27T15:30:32.843Z,30.46
2019-06-27T15:32:59.858Z,30.45
2019-06-27T15:35:26.852Z,30.41
2019-06-27T15:37:54.108Z,30.54
2019-06-27T15:40:21.601Z,30.61
2019-06-27T15:42:48.902Z,30.62
2019-06-27T15:45:16.384Z,30.54
2019-06-27T15:47:44.175Z,30.54
2019-06-27T15:50:11.964Z,30.62
2019-06-27T15:52:38.929Z,30.76
2019-06-27T15:55:07.091Z,30.65
2019-06-27T15:57:33.903Z,30.51
2019-06-27T16:00:00.685Z,30.42
2019-06-27T16:02:27.891Z,30.22
2019-06-27T16:04:54.961Z,30.02
2019-06-27T16:07:21.765Z,29.77
2019-06-27T16:09:48.725Z,29.65
2019-06-27T16:12:15.866Z,29.63
2019-06-27T16:14:43.007Z,29.72
2019-06-27T16:17:09.878Z,29.61
2019-06-27T16:19:36.735Z,29.51
2019-06-27T16:22:03.879Z,29.47
2019-06-27T16:24:30.732Z,29.35
2019-06-27T16:26:57.839Z,29.20
2019-06-27T16:29:24.939Z,29.07
2019-06-27T16:31:51.706Z,29.04
2019-06-27T16:34:19.730Z,29.06
2019-06-27T16:36:47.492Z,28.82
2019-06-27T16:39:14.758Z,29.02
2019-06-27T16:41:41.709Z,28.93
2019-06-27T16:44:09.357Z,28.83
2019-06-27T16:46:37.150Z,28.73
2019-06-27T16:49:09.037Z,28.53
2019-06-27T16:51:33.955Z,28.50
2019-06-27T16:54:00.981Z,28.48
2019-06-27T16:56:28.195Z,28.47
2019-06-27T16:58:55.141Z,28.48
2019-06-27T17:01:22.022Z,28.46
2019-06-27T17:03:49.117Z,28.38
2019-06-27T17:06:16.862Z,28.30
2019-06-27T17:08:43.851Z,28.25
2019-06-27T17:11:11.795Z,28.37
2019-06-27T17:13:38.653Z,28.44
2019-06-27T17:16:05.489Z,28.48
2019-06-27T17:18:33.730Z,28.38
2019-06-27T17:21:00.650Z,28.28
2019-06-27T17:23:28.353Z,28.10
2019-06-27T17:25:56.014Z,27.96
2019-06-27T17:28:23.058Z,27.89
2019-06-27T17:30:49.899Z,27.78
2019-06-27T17:33:17.226Z,27.69
2019-06-27T17:35:43.958Z,27.67
2019-06-27T17:38:10.948Z,27.56
2019-06-27T17:40:37.759Z,27.44
2019-06-27T17:43:04.966Z,27.29
2019-06-27T17:45:31.753Z,27.18
2019-06-27T17:47:58.656Z,27.15
2019-06-27T17:50:25.522Z,27.16
2019-06-27T17:52:53.516Z,27.19
2019-06-27T17:55:20.396Z,27.17
2019-06-27T17:57:47.503Z,27.15
2019-06-27T18:00:15.259Z,27.11
2019-06-27T18:02:42.355Z,27.09
2019-06-27T18:05:09.254Z,27.08
2019-06-27T18:07:36.335Z,26.96
2019-06-27T18:10:03.982Z,26.85
2019-06-27T18:12:31.841Z,26.82
2019-06-27T18:14:58.516Z,26.80
2019-06-27T18:17:33.626Z,26.78
2019-06-27T18:19:55.121Z,26.63
2019-06-27T18:22:22.166Z,26.57
2019-06-27T18:24:49.093Z,25.38
2019-06-27T18:27:16.437Z,24.23
2019-06-27T18:29:43.178Z,26.31
2019-06-27T18:32:09.998Z,26.07
2019-06-27T18:34:38.096Z,25.85
2019-06-27T18:37:04.948Z,25.64
2019-06-27T18:39:31.701Z,25.55
2019-06-27T18:41:59.105Z,25.43
2019-06-27T18:44:27.080Z,25.29
2019-06-27T18:46:54.499Z,25.12
2019-06-27T18:49:21.709Z,24.89
2019-06-27T18:51:49.331Z,24.71
2019-06-27T18:54:17.466Z,24.56
2019-06-27T18:56:44.303Z,24.44
2019-06-27T18:59:11.130Z,24.38
2019-06-27T19:01:38.045Z,24.23
2019-06-27T19:04:05.245Z,24.10
2019-06-27T19:06:32.163Z,24.00
2019-06-27T19:09:00.503Z,23.90
2019-06-27T19:11:28.172Z,23.81
2019-06-27T19:13:55.031Z,23.72
2019-06-27T19:16:21.933Z,23.63
2019-06-27T19:18:53.592Z,23.52
2019-06-27T19:21:38.643Z,23.43
2019-06-27T19:24:16.837Z,23.35
2019-06-27T19:26:44.092Z,23.26
2019-06-27T19:29:10.962Z,23.14
2019-06-27T19:31:38.569Z,23.05
2019-06-27T19:34:06.335Z,22.98
2019-06-27T19:36:32.954Z,22.93
2019-06-27T19:38:59.680Z,22.88
2019-06-27T19:41:26.732Z,22.80
2019-06-27T19:43:53.515Z,22.72
2019-06-27T19:46:20.457Z,22.60
2019-06-27T19:48:47.353Z,22.49
2019-06-27T19:51:14.086Z,22.43
2019-06-27T19:53:41.169Z,22.34
2019-06-27T19:56:08.064Z,22.23
2019-06-27T19:58:35.970Z,22.16
2019-06-27T20:01:04.762Z,22.09
2019-06-27T20:03:31.657Z,22.02
2019-06-27T20:05:58.497Z,21.93
2019-06-27T20:08:25.734Z,21.83
2019-06-27T20:10:53.308Z,21.75
2019-06-27T20:13:20.126Z,21.68
2019-06-27T20:15:47.674Z,21.63
2019-06-27T20:18:14.697Z,21.55
2019-06-27T20:20:41.782Z,21.49
2019-06-27T20:23:09.029Z,21.41
2019-06-27T20:25:36.057Z,21.34
2019-06-27T20:28:03.318Z,21.29
2019-06-27T20:30:30.254Z,21.21
2019-06-27T20:32:57.329Z,21.16
2019-06-27T20:35:24.156Z,21.09
2019-06-27T20:37:51.155Z,21.03
2019-06-27T20:40:18.685Z,20.95
2019-06-27T20:42:46.494Z,20.90
2019-06-27T20:45:13.769Z,20.84
2019-06-27T20:47:41.440Z,20.80
2019-06-27T20:50:09.132Z,20.76
2019-06-27T20:52:36.062Z,20.70
2019-06-27T20:55:03.322Z,20.63
2019-06-27T20:57:30.927Z,20.54
2019-06-27T20:59:58.426Z,20.45
2019-06-27T21:02:26.759Z,20.39
2019-06-27T21:04:54.196Z,20.28
2019-06-27T21:07:21.732Z,20.18
2019-06-27T21:09:48.647Z,20.13
2019-06-27T21:12:16.301Z,20.11
2019-06-27T21:14:43.851Z,20.05
2019-06-27T21:17:10.698Z,20.00
2019-06-27T21:19:37.862Z,19.91
2019-06-27T21:22:04.870Z,19.82
2019-06-27T21:24:32.450Z,19.78
2019-06-27T21:26:59.351Z,19.73
2019-06-27T21:29:27.281Z,19.67
2019-06-27T21:31:54.180Z,19.56
2019-06-27T21:34:21.220Z,19.46
2019-06-27T21:36:49.273Z,19.42
2019-06-27T21:39:16.073Z,19.38
2019-06-27T21:41:43.003Z,19.32
2019-06-27T21:44:10.714Z,19.25
2019-06-27T21:46:38.481Z,19.21
2019-06-27T21:49:06.349Z,19.16
2019-06-27T21:51:34.039Z,19.06
2019-06-27T21:54:01.077Z,18.97
2019-06-27T21:56:28.261Z,18.89
2019-06-27T21:58:55.542Z,18.81
2019-06-27T22:01:23.122Z,18.74
2019-06-27T22:03:50.251Z,18.67
2019-06-27T22:06:17.162Z,18.58
2019-06-27T22:08:44.638Z,18.52
2019-06-27T22:11:11.470Z,18.47
2019-06-27T22:13:38.573Z,18.43
2019-06-27T22:16:06.150Z,18.41
2019-06-27T22:18:33.041Z,18.35
2019-06-27T22:21:00.033Z,18.28
2019-06-27T22:23:27.830Z,18.20
2019-06-27T22:25:55.321Z,16.68
2019-06-27T22:28:22.201Z,18.12
2019-06-27T22:30:49.774Z,18.05
2019-06-27T22:33:17.586Z,17.97
2019-06-27T22:35:44.716Z,17.93
2019-06-27T22:38:29.922Z,17.91
2019-06-27T22:41:16.283Z,17.92
2019-06-27T22:44:05.277Z,17.88
2019-06-27T22:46:52.697Z,17.79
2019-06-27T22:49:24.086Z,17.68
2019-06-27T22:52:01.701Z,17.58
2019-06-27T22:54:33.659Z,17.54
2019-06-27T22:57:01.203Z,17.49
2019-06-27T22:59:28.025Z,17.40
2019-06-27T23:01:55.623Z,17.35
2019-06-27T23:04:23.469Z,15.84
2019-06-27T23:06:51.149Z,17.27
2019-06-27T23:09:18.688Z,17.26
2019-06-27T23:11:46.273Z,17.21
2019-06-27T23:14:14.140Z,17.13
2019-06-27T23:16:41.925Z,16.99
2019-06-27T23:19:11.699Z,16.89
2019-06-27T23:21:41.049Z,16.79
2019-06-27T23:24:08.713Z,16.73
2019-06-27T23:26:36.400Z,16.67
2019-06-27T23:29:04.096Z,16.65
2019-06-27T23:31:31.700Z,16.66
2019-06-27T23:33:59.431Z,16.60
2019-06-27T23:36:27.251Z,16.27
2019-06-27T23:38:54.130Z,16.41
2019-06-27T23:41:21.485Z,16.35
2019-06-27T23:43:48.173Z,16.32
2019-06-27T23:46:33.346Z,16.32
2019-06-27T23:49:00.123Z,16.33
2019-06-27T23:51:26.938Z,16.27
2019-06-27T23:53:53.793Z,16.20
2019-06-27T23:56:20.845Z,16.10
2019-06-27T23:58:48.547Z,16.02
